KDUA/DUA METAR and TAF weather

Enter ICAO airport designator
Station Type Date Time Source
KDUA METAR 2019/07/18 10:53 UTC NOAA

KDUA 181053Z AUTO 18008KT 10SM CLR 26/23 A2999 RMK AO2


Station Type Date Time Source
KDUA Decoded METAR 2019/07/18 10:53 UTC NOAA

Durant, Eaker Field Airport, OK, United States (KDUA) 33-56-32N 096-23-40W
Jul 18, 2019 - 06:53 AM EDT / 2019.07.18 1053 UTC
Wind: from the S (180 degrees) at 9 MPH (8 KT):0
Visibility: 10 mile(s):0
Sky conditions: clear
Temperature: 78 F (26 C)
Dew Point: 73 F (23 C)
Relative Humidity: 83%
Pressure (altimeter): 29.99 in. Hg (1015 hPa)
ob: KDUA 181053Z AUTO 18008KT 10SM CLR 26/23 A2999 RMK AO2
cycle: 11

Station Type Date Time Source
KDUA TAF UTC NOAA

Error!

Example: see airport list